Scotch Plains, New Jersey
Current Conditions -  °F | °C
As of 11:35 AM on Friday 24 Oct 2014 (Local Time) from KLDJ Reporting Station
Overcast Overcast  
Wind Chill: 16°   Ceiling: 3500
Heat Index: 16°   Visibility: 10mi
Dew Point:   Wind: 10mph
Humidity: 58%   Direction: 350°N
Pressure: 29.85"   Gusts: 22mph
Location:  40.65°N, 74.4°W
Report Text: KLDJ 241535Z AUTO 35009G19KT 330V030 10SM OVC035 16/08 A2985 RMK AO2 T01640080
Loading
Personal Weather Stations






























Interactive Weather Map
Tropical Storm Tracking
New forecast layout! Learn more

10-Day Weather Forecast

Advertisements
Track Severe Weather on mobile